Latest Weather Observations for Toowoomba

IDQ60901

Issued at 3:51 am EST Friday 22 February 2019 (issued every 10 minutes, with the page automatically refreshed every 10 minutes)

About weather observations | Map of Brisbane area stations | Latest observations for Brisbane area | Other Formats
Station Details ID: 041529 Name: TOOWOOMBA AIRPORT Lat: -27.54 Lon: 151.91 Height: 640.9 m
Data from the previous 72 hours. | See also: Recent months at Toowoomba
Date/Time
EST
Temp
°C
App
Temp
°C
Dew
Point
°C
Rel
Hum
%
Delta-T
°C
Wind Press
QNH
hPa
Press
MSL
hPa
Rain since
9am
mm
Dir  Spd
km/h
Gust
km/h
Spd
kts
Gust
kts
22/03:30am 19.8 18.3 16.8 83 1.9 ESE 20 26 11 14 1011.3 1007.6 0.0
22/03:00am 19.9 18.1 16.9 83 1.9 ESE 22 30 12 16 1011.5 1007.8 0.0
22/02:30am 19.7 17.9 16.9 84 1.7 ESE 22 30 12 16 1011.6 1008.0 0.0
22/02:00am 19.8 18.4 17.0 84 1.7 ESE 20 26 11 14 1011.8 1008.2 0.0
22/01:30am 19.7 18.4 16.9 84 1.7 ESE 19 22 10 12 1012.1 1008.4 0.0
22/01:00am 19.9 19.0 16.9 83 1.9 ESE 17 22 9 12 1012.3 1008.6 0.0
22/12:30am 20.0 19.4 16.6 81 2.1 SE 15 19 8 10 1012.6 1008.9 0.0
22/12:00am 20.4 19.3 16.4 78 2.5 ESE 17 24 9 13 1012.8 1009.1 0.0
 
Date/Time
EST
Temp
°C
App
Temp
°C
Dew
Point
°C
Rel
Hum
%
Delta-T
°C
Wind Press
QNH
hPa
Press
MSL
hPa
Rain since
9am
mm
Dir  Spd
km/h
Gust
km/h
Spd
kts
Gust
kts
21/11:30pm 20.7 18.3 16.5 77 2.6 ESE 24 32 13 17 1012.6 1008.9 0.0
21/11:00pm 21.0 18.3 16.6 76 2.7 ESE 26 33 14 18 1012.8 1009.1 0.0
21/10:30pm 21.4 18.4 16.8 75 2.9 ESE 28 35 15 19 1012.7 1009.0 0.0
21/10:00pm 21.8 18.1 16.1 70 3.5 ESE 30 39 16 21 1012.9 1009.2 0.0
21/09:30pm 22.3 18.8 15.4 65 4.2 ESE 28 37 15 20 1013.0 1009.4 0.0
21/09:00pm 22.8 17.4 15.1 62 4.7 E 37 46 20 25 1012.5 1008.8 0.0
21/08:30pm 23.3 19.1 16.1 64 4.5 ESE 33 43 18 23 1012.5 1008.8 0.0
21/08:00pm 24.0 20.2 16.8 64 4.6 ESE 32 43 17 23 1011.7 1008.1 0.0
21/07:30pm 24.1 22.2 17.6 67 4.2 ESE 24 33 13 18 1011.3 1007.6 0.0
21/07:00pm 23.9 21.5 17.4 67 4.1 ESE 26 33 14 18 1011.2 1007.5 0.0
21/06:30pm 24.8 22.8 17.3 63 4.8 ESE 24 32 13 17 1010.9 1007.2 0.0
21/06:00pm 26.4 24.5 16.6 55 6.2 SE 22 32 12 17 1010.5 1006.8 0.0
21/05:30pm 28.6 25.1 15.5 45 8.2 ESE 28 37 15 20 1010.0 1006.3 0.0
21/05:00pm 29.1 26.9 16.0 45 8.3 E 22 32 12 17 1009.6 1005.9 0.0
21/04:30pm 29.6 26.9 15.7 43 8.8 E 24 32 13 17 1009.6 1005.9 0.0
21/04:00pm 29.5 26.9 16.0 44 8.6 ESE 24 33 13 18 1009.8 1006.1 0.0
21/03:30pm 29.0 26.5 16.2 46 8.1 E 24 33 13 18 1009.7 1006.0 0.0
21/03:00pm 25.8 23.1 15.5 53 6.4 E 24 33 13 18 1010.1 1006.4 0.0
21/02:54pm 23.9 20.2 15.9 61 5.0 ESE 30 39 16 21 1010.4 1006.7 0.0
21/02:30pm 23.4 18.3 18.5 74 3.2 ESE 43 61 23 33 1010.5 1006.8 0.0
21/02:25pm 24.1 19.6 17.4 66 4.3 SE 37 56 20 30 1010.4 1006.7 0.0
21/02:22pm 24.5 20.1 16.7 61 4.9 SE 35 50 19 27 1010.5 1006.8 0.0
21/02:00pm 30.0 28.2 16.1 43 8.9 E 20 37 11 20 1010.1 1006.4 0.0
21/01:30pm 30.7 29.2 16.7 43 9.0 E 20 30 11 16 1010.7 1007.0 0.0
21/01:00pm 30.3 28.8 16.7 44 8.8 E 20 33 11 18 1011.2 1007.5 0.0
21/12:30pm 30.1 28.8 16.9 45 8.5 ESE 19 32 10 17 1011.5 1007.8 0.0
21/12:00pm 29.9 28.4 16.7 45 8.5 E 20 30 11 16 1011.7 1008.1 0.0
21/11:30am 28.8 27.2 16.4 47 7.9 ESE 20 30 11 16 1012.2 1008.5 0.0
21/11:00am 27.4 25.7 15.7 48 7.4 SE 19 30 10 16 1012.6 1008.9 0.0
21/10:30am 27.2 26.4 17.1 54 6.5 ESE 17 26 9 14 1012.9 1009.2 0.0
21/10:00am 26.5 24.7 17.0 56 6.1 E 22 30 12 16 1013.0 1009.4 0.0
21/09:30am 25.7 23.2 17.1 59 5.5 E 26 32 14 17 1012.8 1009.1 0.0
21/09:00am 25.2 23.1 17.1 60 5.2 ESE 24 35 13 19 1012.8 1009.1 0.0
21/08:30am 24.0 20.7 17.0 65 4.4 E 30 41 16 22 1012.5 1008.8 0.0
21/08:00am 22.9 19.9 16.9 69 3.8 ESE 28 39 15 21 1012.1 1008.4 0.0
21/07:30am 22.5 19.7 17.2 72 3.4 E 28 37 15 20 1012.0 1008.3 0.0
21/07:00am 21.8 20.2 17.4 76 2.8 E 22 32 12 17 1011.7 1008.1 0.0
21/06:30am 20.8 20.3 17.8 83 1.9 ESE 17 24 9 13 1011.5 1007.8 0.0
21/06:00am 20.1 17.5 17.9 87 1.4 E 28 33 15 18 1010.7 1007.0 0.0
21/05:30am 20.0 17.0 17.8 87 1.4 E 30 35 16 19 1010.4 1006.7 0.0
21/05:00am 20.0 16.5 18.0 88 1.3 E 33 39 18 21 1009.8 1006.1 0.0
21/04:30am 20.0 16.6 18.1 89 1.2 E 33 41 18 22 1009.5 1005.8 0.0
21/04:00am 20.0 16.8 18.1 89 1.2 E 32 39 17 21 1009.4 1005.7 0.0
21/03:30am 20.1 16.7 18.1 88 1.3 E 33 39 18 21 1009.2 1005.5 0.0
21/03:00am 20.2 16.9 18.3 89 1.2 E 33 43 18 23 1009.5 1005.8 0.0
21/02:30am 20.1 17.1 19.1 94 0.6 E 33 41 18 22 1009.8 1006.1 0.0
21/02:00am 20.2 17.9 19.4 95 0.5 E 30 37 16 20 1010.4 1006.7 0.0
21/01:30am 20.3 16.8 19.5 95 0.5 E 37 46 20 25 1010.5 1006.8 0.0
21/01:00am 20.6 16.8 19.8 95 0.5 E 39 50 21 27 1010.8 1007.1 0.0
21/12:30am 20.6 17.0 19.4 93 0.8 E 37 46 20 25 1011.0 1007.3 0.0
21/12:24am 20.7 16.8 19.5 93 0.8 E 39 48 21 26 1011.2 1007.5 0.0
21/12:00am 20.9 17.1 19.7 93 0.8 E 39 50 21 27 1011.4 1007.7 0.0
 
Date/Time
EST
Temp
°C
App
Temp
°C
Dew
Point
°C
Rel
Hum
%
Delta-T
°C
Wind Press
QNH
hPa
Press
MSL
hPa
Rain since
9am
mm
Dir  Spd
km/h
Gust
km/h
Spd
kts
Gust
kts
20/11:49pm 21.0 17.8 19.5 91 1.0 E 35 48 19 26 1011.5 1007.8 0.0
20/11:30pm 21.0 17.4 19.3 90 1.1 E 37 46 20 25 1011.6 1008.0 0.0
20/11:08pm 21.4 18.0 19.0 86 1.6 E 35 54 19 29 1011.7 1008.1 0.0
20/11:00pm 21.7 16.6 18.7 83 1.9 E 43 57 23 31 1011.4 1007.7 0.0
20/10:30pm 22.1 17.3 18.3 79 2.4 ESE 41 48 22 26 1011.4 1007.7 0.0
20/10:00pm 22.5 19.0 17.8 75 3.0 E 33 43 18 23 1011.2 1007.5 0.0
20/09:30pm 22.6 18.5 18.2 76 2.8 E 37 46 20 25 1011.2 1007.5 0.0
20/09:00pm 23.0 19.9 18.3 75 3.0 E 32 43 17 23 1010.9 1007.2 0.0
20/08:30pm 23.5 20.1 18.2 72 3.4 E 33 43 18 23 1010.6 1006.9 0.0
20/08:00pm 24.4 20.1 17.9 67 4.2 E 37 50 20 27 1009.6 1005.9 0.0
20/07:30pm 25.4 22.2 17.3 61 5.2 E 30 41 16 22 1009.5 1005.8 0.0
20/07:00pm 27.0 24.0 16.9 54 6.5 E 28 37 15 20 1009.2 1005.5 0.0
20/06:30pm 28.6 24.3 15.5 45 8.2 E 32 39 17 21 1008.7 1004.9 0.0
20/06:00pm 31.2 27.1 11.6 30 11.8 E 24 32 13 17 1008.3 1004.6 0.0
20/05:30pm 32.2 28.7 10.3 26 12.9 ENE 19 22 10 12 1008.3 1004.6 0.0
20/05:00pm 32.8 30.2 10.8 26 13.1 E 15 24 8 13 1008.3 1004.6 0.0
20/04:30pm 32.8 29.7 10.2 25 13.3 E 17 24 9 13 1008.3 1004.6 0.0
20/04:00pm 33.2 30.0 11.1 26 13.3 E 19 30 10 16 1008.4 1004.7 0.0
20/03:30pm 33.3 29.9 10.6 25 13.5 ESE 19 28 10 15 1008.8 1005.0 0.0
20/03:00pm 33.0 29.3 11.5 27 13.0 E 22 28 12 15 1009.0 1005.3 0.0
20/02:30pm 33.4 29.8 11.9 27 13.0 ESE 22 32 12 17 1009.3 1005.6 0.0
20/02:00pm 32.8 28.5 10.8 26 13.1 ESE 24 35 13 19 1009.6 1005.9 0.0
20/01:30pm 32.1 28.5 11.8 29 12.2 E 22 30 12 16 1010.4 1006.7 0.0
20/01:00pm 32.2 29.6 13.9 33 11.4 E 20 32 11 17 1010.8 1007.1 0.0
20/12:30pm 30.6 27.5 13.4 35 10.6 ESE 22 32 12 17 1011.2 1007.5 0.0
20/12:00pm 29.5 26.9 13.7 38 9.7 E 20 30 11 16 1011.6 1008.0 0.0
20/11:30am 29.4 27.0 14.4 40 9.3 E 20 32 11 17 1012.0 1008.3 0.0
20/11:00am 28.5 26.0 15.1 44 8.4 E 22 30 12 16 1012.4 1008.7 0.0
20/10:30am 27.3 24.6 15.7 49 7.3 E 24 33 13 18 1012.8 1009.1 0.0
20/10:00am 25.6 22.9 15.6 54 6.2 ESE 24 32 13 17 1013.1 1009.5 0.0
20/09:30am 25.4 23.6 17.8 62 4.9 ESE 24 33 13 18 1013.1 1009.5 0.0
20/09:00am 23.3 21.6 17.3 69 3.8 E 22 32 12 17 1013.1 1009.5 0.0
20/08:59am 24.1 23.2 18.1 69 3.9 E 20 32 11 17 1013.1 1009.5 0.0
20/08:30am 23.0 22.3 18.3 75 3.0 E 19 30 10 16 1013.1 1009.5 0.0
20/08:25am 22.5 21.6 17.8 75 3.0 E 19 28 10 15 1013.0 1009.4 0.0
20/08:00am 21.8 18.6 18.6 82 2.1 E 33 44 18 24 1012.6 1008.9 0.0
20/07:30am 20.9 16.5 19.2 90 1.1 E 41 50 22 27 1012.0 1008.3 0.0
20/07:00am 20.4 15.7 19.4 94 0.7 E 43 52 23 28 1011.6 1008.0 0.0
20/06:30am 19.8 15.9 19.6 99 0.1 E 39 50 21 27 1011.4 1007.7 0.0
20/06:26am 19.8 15.5 19.6 99 0.1 E 41 50 22 27 1011.4 1007.7 0.0
20/06:00am 19.6 15.6 19.4 99 0.1 E 39 48 21 26 1011.0 1007.3 0.0
20/05:30am 19.3 16.0 19.3 100 0.0 E 35 44 19 24 1010.9 1007.2 0.0
20/05:00am 19.5 16.2 19.3 99 0.1 E 35 44 19 24 1010.6 1006.9 0.0
20/04:30am 19.5 16.8 19.3 99 0.1 E 32 41 17 22 1010.3 1006.6 0.0
20/04:25am 19.6 17.3 19.4 99 0.1 E 30 35 16 19 1010.3 1006.6 0.0
20/04:17am 19.6 17.0 19.4 99 0.1 E 32 37 17 20 1010.1 1006.4 0.0
20/04:00am 19.4 16.7 19.2 99 0.1 E 32 37 17 20 1009.9 1006.2 0.0
20/03:30am 19.4 17.4 19.2 99 0.1 E 28 33 15 18 1009.7 1006.0 0.0
20/03:00am 19.5 17.0 18.8 96 0.5 E 30 37 16 20 1009.5 1005.8 0.0
20/02:30am 20.0 17.2 18.1 89 1.2 E 30 35 16 19 1009.5 1005.8 0.0
20/02:00am 20.5 18.4 18.1 86 1.5 E 26 32 14 17 1009.5 1005.8 0.0
20/01:30am 20.5 18.7 18.8 90 1.1 ESE 26 33 14 18 1009.8 1006.1 0.0
20/01:00am 20.6 19.0 18.4 87 1.4 E 24 32 13 17 1009.9 1006.2 0.0
20/12:30am 20.8 18.4 18.2 85 1.7 E 28 35 15 19 1010.4 1006.7 0.0
20/12:00am 20.9 18.6 18.5 86 1.5 E 28 35 15 19 1010.7 1007.0 0.0
 
Date/Time
EST
Temp
°C
App
Temp
°C
Dew
Point
°C
Rel
Hum
%
Delta-T
°C
Wind Press
QNH
hPa
Press
MSL
hPa
Rain since
9am
mm
Dir  Spd
km/h
Gust
km/h
Spd
kts
Gust
kts
19/11:30pm 21.2 19.0 18.8 86 1.5 ESE 28 32 15 17 1011.0 1007.3 0.0
19/11:00pm 21.7 20.3 18.7 83 1.9 ESE 24 32 13 17 1011.3 1007.6 0.0
19/10:30pm 22.2 20.2 18.4 79 2.4 E 26 35 14 19 1011.4 1007.7 0.0
19/10:00pm 22.7 21.0 18.0 75 3.0 E 24 32 13 17 1011.6 1008.0 0.0
19/09:30pm 23.5 20.9 17.7 70 3.7 E 28 33 15 18 1011.5 1007.8 0.0
19/09:00pm 24.4 21.8 17.9 67 4.2 E 28 35 15 19 1011.5 1007.8 0.0
19/08:30pm 25.2 22.1 17.4 62 5.0 E 30 35 16 19 1011.1 1007.4 0.0
19/08:00pm 26.7 23.7 16.9 55 6.3 ESE 28 35 15 19 1010.8 1007.1 0.0
19/07:30pm 28.9 25.3 13.2 38 9.5 E 24 32 13 17 1010.3 1006.6 0.0
19/07:00pm 29.8 26.6 11.8 33 10.8 E 20 24 11 13 1009.9 1006.2 0.0
19/06:30pm 30.8 27.7 12.2 32 11.2 E 20 28 11 15 1009.5 1005.8 0.0
19/06:00pm 31.6 28.0 11.9 30 11.9 E 22 28 12 15 1009.2 1005.5 0.0
19/05:30pm 33.0 29.7 11.5 27 12.9 ESE 20 24 11 13 1009.0 1005.3 0.0
19/05:00pm 34.3 30.4 10.8 24 14.1 E 22 28 12 15 1008.7 1004.9 0.0
19/04:30pm 35.0 31.7 9.4 21 15.1 E 17 22 9 12 1008.3 1004.6 0.0
19/04:00pm 35.6 33.7 9.2 20 15.6 W 9 15 5 8 1008.3 1004.6 0.0
19/03:30pm 35.2 33.8 8.9 20 15.4 E 6 15 3 8 1008.4 1004.7 0.0
19/03:00pm 34.2 32.6 8.8 21 14.8 NNW 7 13 4 7 1008.6 1004.8 0.0
19/02:30pm 34.2 31.8 8.8 21 14.8 N 11 19 6 10 1008.8 1005.0 0.0
19/02:00pm 34.6 32.1 9.8 22 14.7 E 13 17 7 9 1009.3 1005.6 0.0
19/01:30pm 34.1 32.1 10.0 23 14.3 S 11 20 6 11 1009.9 1006.2 0.0
19/01:00pm 32.9 31.3 11.4 27 12.9 ENE 11 17 6 9 1010.5 1006.8 0.0
19/12:30pm 31.9 30.0 10.6 27 12.6 SE 11 19 6 10 1011.0 1007.3 0.0
19/12:00pm 31.6 30.7 11.4 29 12.1 ESE 7 13 4 7 1011.4 1007.7 0.0
19/11:30am 30.5 29.6 11.5 31 11.3 ENE 7 11 4 6 1012.0 1008.3 0.0
19/11:00am 28.7 27.8 11.3 34 10.3 WSW 7 11 4 6 1012.5 1008.8 0.0
19/10:30am 27.7 26.3 12.1 38 9.3 ENE 11 19 6 10 1012.9 1009.2 0.0
19/10:00am 25.9 23.1 12.7 44 7.9 E 19 24 10 13 1012.8 1009.1 0.0
19/09:30am 26.4 23.9 14.2 47 7.5 E 20 26 11 14 1012.9 1009.2 0.0
19/09:00am 24.7 22.1 14.8 54 6.1 ENE 22 28 12 15 1012.8 1009.1 0.0
19/08:30am 23.1 20.4 14.7 59 5.1 E 22 28 12 15 1012.7 1009.0 0.0
19/08:00am 21.9 19.4 16.2 70 3.5 E 24 30 13 16 1012.6 1008.9 0.0
19/07:30am 20.6 18.4 16.8 79 2.4 E 24 28 13 15 1012.4 1008.7 0.0
19/07:00am 18.9 16.6 17.6 92 0.8 E 26 30 14 16 1012.4 1008.7 0.0
19/06:30am 17.8 15.5 17.6 99 0.1 E 26 32 14 17 1012.1 1008.4 0.0
19/06:00am 17.5 15.8 17.3 99 0.1 E 22 30 12 16 1011.8 1008.2 0.0
19/05:30am 17.5 15.5 17.3 99 0.1 E 24 28 13 15 1011.6 1008.0 0.0
19/05:00am 17.5 15.1 17.3 99 0.1 E 26 32 14 17 1011.6 1008.0 0.0
19/04:30am 17.5 14.3 17.3 99 0.1 ESE 30 33 16 18 1011.5 1007.8 0.0
19/04:00am 17.6 14.8 17.4 99 0.1 ESE 28 33 15 18 1011.4 1007.7 0.0

Latest Capital City Observations: Canberra | Sydney | Melbourne | Brisbane | Adelaide | Perth | Hobart | Darwin

Other formats

Comma delimited format used in spreadsheet applications
http://www.bom.gov.au/fwo/IDQ60901/IDQ60901.95551.axf

JavaScript Object Notation format (JSON) in row-major order
http://www.bom.gov.au/fwo/IDQ60901/IDQ60901.95551.json

Data quality

Most of these data are generated automatically and are frequently updated. Quality checks on data are not normally performed. It is possible for incorrect values to appear. Refer to information at About Latest Weather Observations and please check the disclaimer before using these data.